Shefford, Canada
Current Conditions -  °F | °C
As of 8:00 AM on Tuesday 21 Oct 2014 (Local Time) from CYHU Reporting Station
Light Rain Light Rain  
Wind Chill:   Ceiling: 5500
Heat Index:   Visibility: 9mi
Dew Point:   Wind: 9mph
Humidity: 87%   Direction: 40°NE
Pressure: 29.99"   Gusts: NA
Location:  45.42°N, 72.58°W
Report Text: CYHU 211200Z AUTO 04008KT 9SM -RA OVC055 05/03 A2999 RMK SLP158
Loading
Personal Weather Stations






























Interactive Weather Map
Tropical Storm Tracking
New forecast layout! Learn more

10-Day Weather Forecast

Advertisements
Track Severe Weather on mobile